Time;durP1;ratioP1;P1;durP2;ratioP2;P2;SDS_P1;SDS_P2;PMS_P1;PMS_P2;Temp;Humidity;BMP_temperature;BMP_pressure;BME280_temperature;BME280_humidity;BME280_pressure;Samples;Min_cycle;Max_cycle;Signal;HPM_P1;HPM_P2
2022/11/06 00:00:42;;;;;;;2.75;2.00;;;21.10;66.00;;;;;;4976984;28;87278;-84
2022/11/06 00:03:08;;;;;;;3.80;2.00;;;21.10;66.00;;;;;;4978113;28;87209;-81
2022/11/06 00:08:34;;;;;;;4.32;2.15;;;21.10;66.00;;;;;;4976808;28;86987;-81
2022/11/06 00:11:06;;;;;;;3.10;1.88;;;21.10;66.00;;;;;;4976586;28;87902;-82
2022/11/06 00:13:32;;;;;;;3.95;2.13;;;21.00;65.90;;;;;;4969606;28;87896;-81
2022/11/06 00:16:01;;;;;;;3.15;2.00;;;21.00;65.80;;;;;;4976071;28;88080;-81
2022/11/06 00:18:27;;;;;;;4.88;2.45;;;21.00;65.90;;;;;;4976370;28;87349;-83
2022/11/06 00:20:53;;;;;;;3.13;1.95;;;21.00;66.00;;;;;;4977397;28;87585;-83
2022/11/06 00:23:18;;;;;;;8.15;2.33;;;21.00;66.00;;;;;;5008221;28;87282;-84
2022/11/06 00:25:44;;;;;;;3.97;2.22;;;21.00;66.10;;;;;;4976716;28;88350;-83
2022/11/06 00:28:09;;;;;;;3.03;1.98;;;20.90;66.10;;;;;;4977019;28;87791;-84
2022/11/06 00:30:36;;;;;;;3.05;1.50;;;21.00;66.00;;;;;;4976277;28;87283;-84
2022/11/06 00:33:02;;;;;;;4.07;2.10;;;20.90;66.00;;;;;;4976881;28;88766;-85
2022/11/06 00:35:28;;;;;;;4.38;2.17;;;20.90;66.00;;;;;;4975970;28;89720;-84
2022/11/06 00:37:54;;;;;;;2.40;1.60;;;20.90;65.90;;;;;;4976847;28;88761;-84
2022/11/06 00:40:20;;;;;;;2.50;1.75;;;20.90;65.80;;;;;;4976826;28;86878;-84
2022/11/06 00:42:46;;;;;;;4.25;1.92;;;20.80;65.90;;;;;;4978878;28;87279;-83
2022/11/06 00:45:11;;;;;;;2.40;1.80;;;20.90;66.00;;;;;;4978617;28;87549;-84
2022/11/06 00:47:37;;;;;;;3.80;2.00;;;20.90;65.70;;;;;;4976781;28;87717;-83
2022/11/06 00:50:03;;;;;;;3.40;2.20;;;20.90;65.90;;;;;;4976962;28;86917;-84
2022/11/06 00:52:29;;;;;;;4.60;2.15;;;20.90;66.00;;;;;;5008036;28;90961;-84
2022/11/06 00:54:54;;;;;;;3.78;2.03;;;20.80;65.90;;;;;;4976559;28;88649;-83
2022/11/06 00:57:20;;;;;;;4.35;1.90;;;20.80;66.60;;;;;;4976766;28;87312;-84
2022/11/06 00:59:45;;;;;;;2.65;1.83;;;20.80;65.70;;;;;;4978134;28;87914;-84
2022/11/06 01:02:11;;;;;;;3.47;1.80;;;20.80;65.90;;;;;;4981938;28;87405;-84
2022/11/06 01:04:36;;;;;;;4.07;1.70;;;20.80;65.80;;;;;;4980477;28;87088;-83
2022/11/06 01:07:02;;;;;;;2.67;1.70;;;20.80;65.90;;;;;;4979585;28;88272;-84
2022/11/06 01:09:28;;;;;;;2.05;1.40;;;20.80;66.00;;;;;;4980028;28;87615;-84
2022/11/06 01:11:56;;;;;;;2.72;1.52;;;20.70;65.90;;;;;;4980167;28;87491;-84
2022/11/06 01:14:23;;;;;;;2.88;1.80;;;20.70;65.90;;;;;;5009194;28;92022;-84
2022/11/06 01:16:49;;;;;;;2.33;1.73;;;20.70;65.70;;;;;;4979965;28;87366;-84
2022/11/06 01:19:17;;;;;;;3.92;2.20;;;20.70;65.90;;;;;;4979825;28;87082;-84
2022/11/06 01:21:47;;;;;;;2.60;1.73;;;20.70;65.80;;;;;;4979062;28;87276;-84
2022/11/06 01:24:17;;;;;;;2.65;1.70;;;20.70;65.90;;;;;;4979600;28;89035;-84
2022/11/06 01:26:43;;;;;;;3.13;1.90;;;20.70;65.70;;;;;;4979629;28;93948;-84
2022/11/06 01:29:12;;;;;;;3.60;1.70;;;20.70;65.80;;;;;;4979809;28;86905;-84
2022/11/06 01:31:37;;;;;;;2.75;1.70;;;20.70;65.90;;;;;;4978899;28;86915;-84
2022/11/06 01:34:04;;;;;;;2.53;1.50;;;20.70;65.70;;;;;;4979151;28;88270;-83
2022/11/06 01:36:30;;;;;;;3.80;1.85;;;20.70;65.60;;;;;;4977655;28;89994;-84
2022/11/06 01:38:58;;;;;;;2.88;1.73;;;20.70;65.70;;;;;;4980591;28;87027;-84
2022/11/06 01:41:30;;;;;;;2.55;1.90;;;20.70;65.80;;;;;;4977914;28;89434;-83
2022/11/06 01:44:34;;;;;;;2.83;1.70;;;20.70;65.80;;;;;;4978656;28;88453;-84
2022/11/06 01:47:02;;;;;;;3.28;1.70;;;20.70;65.80;;;;;;4978705;28;88310;-83
2022/11/06 01:49:33;;;;;;;2.30;1.70;;;20.60;65.60;;;;;;4979606;28;88175;-84
2022/11/06 01:52:04;;;;;;;2.90;1.70;;;20.60;65.60;;;;;;4976674;28;86964;-84
2022/11/06 01:54:32;;;;;;;2.40;1.63;;;20.60;65.60;;;;;;4979605;28;87957;-84
2022/11/06 01:57:00;;;;;;;2.97;1.70;;;20.60;65.60;;;;;;4979573;28;87206;-83
2022/11/06 01:59:29;;;;;;;3.47;1.88;;;20.60;65.80;;;;;;4977534;28;87281;-84
2022/11/06 02:01:54;;;;;;;2.83;1.63;;;20.60;65.80;;;;;;4978360;28;87078;-84
2022/11/06 02:04:31;;;;;;;3.83;1.90;;;20.60;65.80;;;;;;4979028;28;89354;-83
2022/11/06 02:06:58;;;;;;;2.88;1.55;;;20.60;65.90;;;;;;4979349;28;88669;-84
2022/11/06 02:09:24;;;;;;;2.70;1.75;;;20.60;65.90;;;;;;4978809;28;86890;-83
2022/11/06 02:11:57;;;;;;;2.00;1.60;;;20.60;65.80;;;;;;4980758;28;87144;-84
2022/11/06 02:14:39;;;;;;;1.80;1.40;;;20.60;65.80;;;;;;5009730;28;90339;-84
2022/11/06 02:17:19;;;;;;;2.78;1.50;;;20.60;65.80;;;;;;4998249;28;88192;-84
2022/11/06 02:20:11;;;;;;;1.80;1.50;;;20.60;65.80;;;;;;4978027;28;88108;-84
2022/11/06 02:22:58;;;;;;;3.25;1.60;;;20.50;65.70;;;;;;4978957;28;87642;-84
2022/11/06 02:25:48;;;;;;;3.67;2.03;;;20.50;65.70;;;;;;4978220;28;88713;-84
2022/11/06 02:28:26;;;;;;;4.40;1.98;;;20.50;65.50;;;;;;4978580;28;87432;-84
2022/11/06 02:30:55;;;;;;;3.40;1.90;;;20.50;65.60;;;;;;4978615;28;87089;-83
2022/11/06 02:33:33;;;;;;;1.55;1.45;;;20.50;65.80;;;;;;4978416;28;86904;-84
2022/11/06 02:36:06;;;;;;;2.88;1.48;;;20.50;65.70;;;;;;4978777;28;88620;-84
2022/11/06 02:38:37;;;;;;;2.58;1.70;;;20.50;65.70;;;;;;4972702;28;88174;-84
2022/11/06 02:41:07;;;;;;;2.00;1.40;;;20.50;65.90;;;;;;4977973;28;87909;-83
2022/11/06 02:43:39;;;;;;;2.58;1.50;;;20.50;65.80;;;;;;4978189;28;87374;-84
2022/11/06 02:46:35;;;;;;;2.63;1.60;;;20.50;65.80;;;;;;4978990;28;88417;-84
2022/11/06 02:49:14;;;;;;;2.45;1.38;;;20.50;65.70;;;;;;4973877;28;88163;-83
2022/11/06 02:51:45;;;;;;;2.03;1.30;;;20.50;65.70;;;;;;4976170;28;86986;-84
2022/11/06 02:54:11;;;;;;;3.40;1.98;;;20.50;65.70;;;;;;4972680;28;87254;-84
2022/11/06 02:56:41;;;;;;;3.33;1.80;;;20.50;65.70;;;;;;4975772;28;88968;-84
2022/11/06 02:59:17;;;;;;;2.53;1.67;;;20.50;66.60;;;;;;4974987;28;87761;-84
2022/11/06 03:01:54;;;;;;;2.78;1.67;;;20.40;65.70;;;;;;4976245;28;87076;-84
2022/11/06 03:04:26;;;;;;;3.63;1.65;;;20.40;65.60;;;;;;4974972;28;87533;-83
2022/11/06 03:07:07;;;;;;;1.92;1.23;;;20.40;65.80;;;;;;4966509;28;89703;-84
2022/11/06 03:09:33;;;;;;;3.50;1.40;;;20.40;65.80;;;;;;4983752;28;91006;-84
2022/11/06 03:12:11;;;;;;;2.40;1.63;;;20.40;65.80;;;;;;4977483;28;87069;-84
2022/11/06 03:14:51;;;;;;;1.70;1.40;;;20.40;65.80;;;;;;4974753;28;87335;-84
2022/11/06 03:17:20;;;;;;;2.00;1.40;;;20.40;65.80;;;;;;4975797;28;88324;-84
2022/11/06 03:19:48;;;;;;;1.67;1.20;;;20.40;65.90;;;;;;4975643;28;88928;-84
2022/11/06 03:22:27;;;;;;;2.85;1.60;;;20.40;65.80;;;;;;4974714;28;87189;-84
2022/11/06 03:25:19;;;;;;;2.38;1.63;;;20.40;65.70;;;;;;4975912;28;87103;-84
2022/11/06 03:28:03;;;;;;;2.10;1.45;;;20.40;66.50;;;;;;4977188;28;88597;-84
2022/11/06 03:30:31;;;;;;;3.47;1.48;;;20.40;65.70;;;;;;4978324;28;88314;-84
2022/11/06 03:33:14;;;;;;;1.90;1.50;;;20.40;65.80;;;;;;4977445;28;87896;-84
2022/11/06 03:35:46;;;;;;;1.70;1.27;;;20.30;65.70;;;;;;4973295;28;90937;-83
2022/11/06 03:38:24;;;;;;;1.85;1.40;;;20.40;65.70;;;;;;4977159;28;88506;-83
2022/11/06 03:40:53;;;;;;;2.03;1.40;;;20.40;66.00;;;;;;4977283;28;88107;-84
2022/11/06 03:43:25;;;;;;;3.30;1.80;;;20.30;65.80;;;;;;4977802;28;87460;-84
2022/11/06 03:45:53;;;;;;;2.10;1.30;;;20.30;65.80;;;;;;4977558;28;87221;-84
2022/11/06 03:48:29;;;;;;;2.80;1.67;;;20.30;65.70;;;;;;4977270;28;88047;-84
2022/11/06 03:50:59;;;;;;;2.20;1.40;;;20.30;65.80;;;;;;4979295;28;88424;-84
2022/11/06 03:53:38;;;;;;;2.42;1.60;;;20.30;65.60;;;;;;4978306;28;87412;-84
2022/11/06 03:56:22;;;;;;;1.75;1.08;;;20.30;65.70;;;;;;4977042;28;87207;-83
2022/11/06 03:58:49;;;;;;;2.25;1.52;;;20.30;65.50;;;;;;4976629;28;89147;-84
2022/11/06 04:01:21;;;;;;;2.03;1.40;;;20.30;65.80;;;;;;4977933;28;88760;-83
2022/11/06 04:04:01;;;;;;;1.88;1.30;;;20.30;65.60;;;;;;5009327;28;87417;-84
2022/11/06 04:06:37;;;;;;;3.00;1.70;;;20.30;65.80;;;;;;4976403;28;87350;-84
2022/11/06 04:14:37;;;;;;;2.20;1.40;;;20.30;65.80;;;;;;4977478;28;87157;-84
2022/11/06 04:17:07;;;;;;;2.27;1.40;;;20.30;65.80;;;;;;4977788;28;86816;-84
2022/11/06 04:19:33;;;;;;;2.63;1.50;;;20.20;65.70;;;;;;4976500;28;88677;-83
2022/11/06 04:22:07;;;;;;;1.98;1.42;;;20.20;65.70;;;;;;4976204;28;88375;-84
2022/11/06 04:27:43;;;;;;;2.28;1.35;;;20.20;65.60;;;;;;4971055;28;86886;-84
2022/11/06 04:30:18;;;;;;;2.80;1.48;;;20.20;65.60;;;;;;4977547;28;88127;-84
2022/11/06 04:32:58;;;;;;;2.05;1.20;;;20.20;65.50;;;;;;4976924;28;92005;-84
2022/11/06 04:35:45;;;;;;;1.85;1.40;;;20.20;65.60;;;;;;4977711;28;87015;-84
2022/11/06 04:38:38;;;;;;;2.17;1.45;;;20.20;65.40;;;;;;5010740;28;89636;-83
2022/11/06 04:41:24;;;;;;;2.00;1.10;;;20.20;65.40;;;;;;4980111;28;88870;-83
2022/11/06 04:44:16;;;;;;;1.33;1.23;;;20.20;65.40;;;;;;4980121;28;87374;-84
2022/11/06 04:46:48;;;;;;;1.70;1.30;;;20.20;65.70;;;;;;4977931;28;86907;-82
2022/11/06 04:49:14;;;;;;;1.90;1.20;;;20.20;65.90;;;;;;4979287;28;87456;-82
2022/11/06 04:51:43;;;;;;;2.65;1.50;;;20.20;65.60;;;;;;4978961;28;88856;-83
2022/11/06 04:54:09;;;;;;;1.42;1.20;;;20.20;65.90;;;;;;4979769;28;90645;-82
2022/11/06 04:56:36;;;;;;;1.60;1.30;;;20.20;65.80;;;;;;4980136;28;88134;-82
2022/11/06 04:59:03;;;;;;;1.55;1.20;;;20.20;65.60;;;;;;4979449;28;87029;-82
2022/11/06 05:01:29;;;;;;;2.13;1.42;;;20.20;65.60;;;;;;4977288;28;88687;-82
2022/11/06 05:03:54;;;;;;;1.92;1.30;;;20.10;65.60;;;;;;4978472;28;89985;-83
2022/11/06 05:06:20;;;;;;;2.13;1.52;;;20.10;65.60;;;;;;4980343;28;87097;-82
2022/11/06 05:08:46;;;;;;;1.75;1.25;;;20.10;65.70;;;;;;4980710;28;87474;-82
2022/11/06 05:11:12;;;;;;;2.72;1.55;;;20.10;65.70;;;;;;4979511;28;88396;-82
2022/11/06 05:13:37;;;;;;;2.25;1.17;;;20.10;65.60;;;;;;4980061;28;87633;-82
2022/11/06 05:16:04;;;;;;;2.03;1.45;;;20.10;65.50;;;;;;4979651;28;88209;-82
2022/11/06 05:18:30;;;;;;;2.78;1.23;;;20.10;65.50;;;;;;4979930;28;87140;-82
2022/11/06 05:23:47;;;;;;;1.35;1.25;;;20.10;65.50;;;;;;4974298;28;91306;-82
2022/11/06 05:26:12;;;;;;;1.48;1.25;;;20.10;65.60;;;;;;4979549;28;87541;-82
2022/11/06 05:28:38;;;;;;;1.45;1.10;;;20.10;65.40;;;;;;4979689;28;87395;-82
2022/11/06 05:31:04;;;;;;;2.53;1.55;;;20.10;65.60;;;;;;4979443;28;88224;-82
2022/11/06 05:33:30;;;;;;;2.20;1.27;;;20.10;65.60;;;;;;4979950;28;87728;-82
2022/11/06 05:36:00;;;;;;;2.05;1.40;;;20.10;65.80;;;;;;4980686;28;87221;-82
2022/11/06 05:38:25;;;;;;;1.85;1.30;;;20.10;65.70;;;;;;4979297;28;87065;-82
2022/11/06 05:40:51;;;;;;;3.65;1.45;;;20.00;65.80;;;;;;4979042;28;90130;-83
2022/11/06 05:43:16;;;;;;;2.03;1.38;;;20.10;65.80;;;;;;4979891;28;89081;-82
2022/11/06 05:45:42;;;;;;;2.05;1.17;;;20.10;65.70;;;;;;4979031;28;88078;-82
2022/11/06 05:48:07;;;;;;;1.85;1.10;;;20.10;65.60;;;;;;4979831;28;87144;-83
2022/11/06 05:50:33;;;;;;;2.00;1.30;;;20.10;65.60;;;;;;4978903;28;88471;-82
2022/11/06 05:52:59;;;;;;;1.60;1.10;;;20.00;65.60;;;;;;4979564;28;87233;-82
2022/11/06 05:55:24;;;;;;;2.28;1.10;;;20.00;65.70;;;;;;4979791;28;86821;-82
2022/11/06 05:57:50;;;;;;;1.88;1.35;;;20.00;65.60;;;;;;4979826;28;86118;-82
2022/11/06 06:00:16;;;;;;;2.17;1.15;;;20.10;65.60;;;;;;4979670;28;88519;-82
2022/11/06 06:02:41;;;;;;;2.35;1.30;;;20.00;65.70;;;;;;4979606;28;88243;-82
2022/11/06 06:05:08;;;;;;;1.67;1.30;;;20.00;65.70;;;;;;4978883;28;87887;-82
2022/11/06 06:07:34;;;;;;;1.73;1.25;;;20.00;65.70;;;;;;4979330;28;87472;-82
2022/11/06 06:09:59;;;;;;;2.78;1.40;;;20.00;65.60;;;;;;4978984;28;87215;-82
2022/11/06 06:12:25;;;;;;;1.73;1.40;;;20.00;65.70;;;;;;4979955;28;88406;-82
2022/11/06 06:14:52;;;;;;;1.52;1.20;;;20.00;65.70;;;;;;4979224;28;86874;-82
2022/11/06 06:17:17;;;;;;;1.52;1.13;;;20.00;65.70;;;;;;4978544;28;87118;-82
2022/11/06 06:19:43;;;;;;;1.92;1.10;;;20.00;65.70;;;;;;4979319;28;87422;-82
2022/11/06 06:22:09;;;;;;;1.45;1.00;;;20.00;65.60;;;;;;5011353;28;90459;-84
2022/11/06 06:24:34;;;;;;;4.53;1.45;;;20.00;65.70;;;;;;4978891;28;86940;-82
2022/11/06 06:27:00;;;;;;;2.03;1.30;;;20.10;65.00;;;;;;4978987;28;87064;-82
2022/11/06 06:29:26;;;;;;;3.45;1.35;;;20.10;63.40;;;;;;4976917;28;88489;-81
2022/11/06 06:31:52;;;;;;;2.13;1.30;;;20.10;63.60;;;;;;4981121;28;89490;-82
2022/11/06 06:34:18;;;;;;;2.50;1.20;;;20.10;64.70;;;;;;4979073;28;87215;-82
2022/11/06 06:36:43;;;;;;;1.80;1.42;;;20.10;65.40;;;;;;4978327;28;86888;-81
2022/11/06 06:39:09;;;;;;;1.30;1.20;;;20.00;65.80;;;;;;4979535;28;89054;-81
2022/11/06 06:41:35;;;;;;;1.98;1.35;;;20.00;66.00;;;;;;4977659;28;88320;-82
2022/11/06 06:44:00;;;;;;;2.95;1.40;;;20.00;66.20;;;;;;4977816;28;87147;-82
2022/11/06 06:46:26;;;;;;;3.03;1.45;;;20.00;66.10;;;;;;5010822;28;89395;-82
2022/11/06 06:48:52;;;;;;;1.85;1.40;;;20.00;66.10;;;;;;4977974;28;88194;-83
2022/11/06 06:51:18;;;;;;;8.13;1.85;;;20.10;66.60;;;;;;4978104;28;87952;-82
2022/11/06 06:53:44;;;;;;;12.30;1.98;;;20.10;65.60;;;;;;4978549;28;87806;-81
2022/11/06 06:56:09;;;;;;;9.77;2.83;;;20.20;65.40;;;;;;4977783;28;87060;-82
2022/11/06 06:58:35;;;;;;;11.80;2.60;;;20.10;66.20;;;;;;4977440;28;88792;-82
2022/11/06 07:01:03;;;;;;;8.77;2.20;;;20.10;65.90;;;;;;4977802;28;88713;-83
2022/11/06 07:03:28;;;;;;;11.45;2.28;;;20.00;65.80;;;;;;4978305;28;86898;-82
2022/11/06 07:05:55;;;;;;;7.32;2.25;;;20.00;65.80;;;;;;4979865;28;86823;-82
2022/11/06 07:08:21;;;;;;;13.43;2.20;;;19.90;66.00;;;;;;4978410;28;87655;-82
2022/11/06 07:10:46;;;;;;;9.13;1.98;;;19.90;66.00;;;;;;4979152;28;87640;-82
2022/11/06 07:13:12;;;;;;;9.77;2.50;;;19.90;66.10;;;;;;4978870;28;87261;-82
2022/11/06 07:15:37;;;;;;;7.82;1.80;;;19.90;66.30;;;;;;4978299;28;87195;-82
2022/11/06 07:18:05;;;;;;;7.50;1.67;;;19.90;66.30;;;;;;4979198;28;88427;-82
2022/11/06 07:20:31;;;;;;;6.20;1.80;;;19.90;66.20;;;;;;4978427;28;89210;-83
2022/11/06 07:22:57;;;;;;;9.15;2.20;;;19.90;66.20;;;;;;4979261;28;86910;-83
2022/11/06 07:25:24;;;;;;;8.40;2.22;;;19.90;65.70;;;;;;4978378;28;87408;-82
2022/11/06 07:27:49;;;;;;;9.93;2.45;;;19.90;66.00;;;;;;4978190;28;88574;-82
2022/11/06 07:30:15;;;;;;;11.48;2.40;;;19.90;65.90;;;;;;4976803;28;87929;-81
2022/11/06 07:32:41;;;;;;;9.77;2.38;;;20.00;65.90;;;;;;4983841;28;86851;-81
2022/11/06 07:35:07;;;;;;;6.90;2.28;;;20.10;65.90;;;;;;4977337;28;86928;-82
2022/11/06 07:37:34;;;;;;;13.55;3.08;;;20.20;65.50;;;;;;4976028;28;88095;-80
2022/11/06 07:39:59;;;;;;;27.20;5.68;;;20.20;65.30;;;;;;4975750;28;87908;-82
2022/11/06 07:42:26;;;;;;;52.80;10.23;;;20.30;65.00;;;;;;4976064;28;87983;-82
2022/11/06 07:44:54;;;;;;;32.25;7.05;;;20.40;64.40;;;;;;4975794;28;87440;-82
2022/11/06 07:47:20;;;;;;;42.97;8.45;;;20.40;64.40;;;;;;4976050;28;88054;-82
2022/11/06 07:49:46;;;;;;;32.72;8.77;;;20.40;64.30;;;;;;4976138;28;87779;-82
2022/11/06 07:52:11;;;;;;;40.97;7.25;;;20.50;64.20;;;;;;4981083;28;86971;-82
2022/11/06 07:54:37;;;;;;;41.28;9.23;;;20.50;64.30;;;;;;4992611;28;87850;-83
2022/11/06 07:57:02;;;;;;;41.28;8.15;;;20.50;64.50;;;;;;4976276;28;88113;-81
2022/11/06 07:59:28;;;;;;;33.30;7.55;;;20.50;64.60;;;;;;4975564;28;87795;-82
2022/11/06 08:01:53;;;;;;;34.38;8.18;;;20.40;64.60;;;;;;4976911;28;87073;-82
2022/11/06 08:04:19;;;;;;;33.67;8.02;;;20.50;64.90;;;;;;4976790;28;86910;-83
2022/11/06 08:06:44;;;;;;;35.78;9.05;;;20.50;65.10;;;;;;4977231;28;88480;-83
2022/11/06 08:09:10;;;;;;;39.90;9.13;;;20.50;65.40;;;;;;4978009;28;89239;-83
2022/11/06 08:11:38;;;;;;;38.15;9.48;;;20.50;65.70;;;;;;4976257;28;87218;-83
2022/11/06 08:14:04;;;;;;;39.53;10.02;;;20.60;66.60;;;;;;4976195;28;88027;-82
2022/11/06 08:16:30;;;;;;;34.60;8.60;;;20.60;66.10;;;;;;4975580;28;87569;-82
2022/11/06 08:18:55;;;;;;;33.95;8.57;;;20.60;66.20;;;;;;4976144;28;87232;-82
2022/11/06 08:21:21;;;;;;;40.75;9.05;;;20.60;66.40;;;;;;5005233;28;87076;-81
2022/11/06 08:23:47;;;;;;;31.08;8.68;;;20.70;66.60;;;;;;4977182;28;87318;-81
2022/11/06 08:26:12;;;;;;;44.40;9.00;;;20.80;66.00;;;;;;4975125;28;88354;-82
2022/11/06 08:28:38;;;;;;;33.53;9.10;;;20.70;66.60;;;;;;4975057;28;87984;-83
2022/11/06 08:31:05;;;;;;;32.60;9.02;;;20.70;66.80;;;;;;4975188;28;88229;-83
2022/11/06 08:33:30;;;;;;;34.88;8.77;;;20.70;67.00;;;;;;4975119;28;87364;-83
2022/11/06 08:35:59;;;;;;;31.83;8.55;;;20.70;67.20;;;;;;4975217;28;88061;-81
2022/11/06 08:38:24;;;;;;;33.33;9.00;;;20.70;67.40;;;;;;4975403;28;88153;-81
2022/11/06 08:40:50;;;;;;;32.55;8.63;;;20.70;67.30;;;;;;4975876;28;87134;-81
2022/11/06 08:43:16;;;;;;;35.85;8.40;;;20.70;67.10;;;;;;4975130;28;87134;-81
2022/11/06 08:45:42;;;;;;;28.50;8.00;;;20.70;67.10;;;;;;4975583;28;87850;-82
2022/11/06 08:48:08;;;;;;;31.65;8.57;;;20.60;66.20;;;;;;4976845;28;87208;-82
2022/11/06 08:50:36;;;;;;;30.15;8.65;;;20.70;65.90;;;;;;4980438;28;86892;-82
2022/11/06 08:53:03;;;;;;;27.08;7.65;;;20.70;66.00;;;;;;4977195;28;87582;-81
2022/11/06 08:55:33;;;;;;;25.20;7.03;;;20.70;65.50;;;;;;4973332;28;87928;-81
2022/11/06 08:57:59;;;;;;;28.83;6.85;;;20.80;65.00;;;;;;4973819;28;88739;-82
2022/11/06 09:00:26;;;;;;;30.95;8.07;;;20.70;65.40;;;;;;4975179;28;87187;-81
2022/11/06 09:02:57;;;;;;;30.30;6.75;;;20.70;64.10;;;;;;4976152;28;86964;-83
2022/11/06 09:05:23;;;;;;;28.60;6.63;;;20.70;63.10;;;;;;4975028;28;87340;-82
2022/11/06 09:07:48;;;;;;;30.48;6.75;;;20.60;63.60;;;;;;4975805;28;87469;-83
2022/11/06 09:10:14;;;;;;;18.20;6.75;;;20.60;63.30;;;;;;4977415;28;86968;-83
2022/11/06 09:12:40;;;;;;;26.48;7.93;;;20.60;62.80;;;;;;4995808;28;87392;-83
2022/11/06 09:15:06;;;;;;;32.22;8.50;;;20.60;62.60;;;;;;4977091;28;87726;-83
2022/11/06 09:17:32;;;;;;;35.70;9.93;;;20.60;62.00;;;;;;4964276;28;89317;-82
2022/11/06 09:19:57;;;;;;;50.25;12.68;;;20.60;61.50;;;;;;4978705;28;87904;-83
2022/11/06 09:22:23;;;;;;;46.92;12.80;;;20.60;61.20;;;;;;4978585;28;87401;-83
2022/11/06 09:24:49;;;;;;;47.50;13.65;;;20.60;61.10;;;;;;4977800;28;90367;-83
2022/11/06 09:27:14;;;;;;;36.75;11.43;;;20.60;60.70;;;;;;4978736;28;87366;-83
2022/11/06 09:29:42;;;;;;;46.35;12.63;;;20.60;59.50;;;;;;4980033;28;87122;-83
2022/11/06 09:32:09;;;;;;;35.00;9.95;;;20.60;59.00;;;;;;4976765;28;86998;-83
2022/11/06 09:34:34;;;;;;;36.72;10.23;;;20.60;58.90;;;;;;4979937;28;88547;-83
2022/11/06 09:37:03;;;;;;;31.63;8.85;;;20.60;58.40;;;;;;5010646;28;90931;-83
2022/11/06 09:39:29;;;;;;;33.17;9.27;;;20.60;58.50;;;;;;4977757;28;86968;-83
2022/11/06 09:42:00;;;;;;;35.60;8.52;;;20.60;58.40;;;;;;4979410;28;87342;-83
2022/11/06 09:44:53;;;;;;;32.83;8.77;;;20.60;58.30;;;;;;4978350;28;90994;-82
2022/11/06 09:47:24;;;;;;;24.60;7.40;;;20.60;57.90;;;;;;5010010;28;92431;-83
2022/11/06 09:49:53;;;;;;;27.25;7.47;;;20.60;57.90;;;;;;4978114;28;87308;-83
2022/11/06 09:52:46;;;;;;;23.50;7.63;;;20.60;57.80;;;;;;4978959;28;87337;-84
2022/11/06 09:55:25;;;;;;;23.33;6.95;;;20.70;58.00;;;;;;4979259;28;88623;-83
2022/11/06 09:57:58;;;;;;;23.85;6.88;;;20.70;58.00;;;;;;4977475;28;88648;-83
2022/11/06 10:00:24;;;;;;;19.58;6.25;;;20.60;58.00;;;;;;4979544;28;94219;-83
2022/11/06 10:03:04;;;;;;;21.98;6.55;;;20.60;57.80;;;;;;4980164;28;87068;-83
2022/11/06 10:05:36;;;;;;;19.02;5.53;;;20.60;58.10;;;;;;4978256;28;88665;-83
2022/11/06 10:08:13;;;;;;;17.55;4.97;;;20.60;57.40;;;;;;4977822;28;87833;-84
2022/11/06 10:11:08;;;;;;;17.67;4.80;;;20.70;57.70;;;;;;4978341;28;88675;-83
2022/11/06 10:13:53;;;;;;;14.98;5.07;;;20.70;57.20;;;;;;4974522;28;89104;-82
2022/11/06 10:16:44;;;;;;;17.30;4.93;;;20.60;57.10;;;;;;4972452;28;88043;-83
2022/11/06 10:19:40;;;;;;;13.77;3.95;;;20.60;56.40;;;;;;4972748;28;88700;-83
2022/11/06 10:22:30;;;;;;;12.13;3.60;;;20.60;57.00;;;;;;4952181;28;87465;-83
2022/11/06 10:25:26;;;;;;;11.55;3.67;;;20.60;56.40;;;;;;4956523;28;87108;-84
2022/11/06 10:27:58;;;;;;;13.63;4.30;;;20.60;56.20;;;;;;4897786;28;88574;-84
2022/11/06 10:30:23;;;;;;;15.93;4.05;;;20.60;56.60;;;;;;4897839;28;87711;-84
2022/11/06 10:32:57;;;;;;;13.82;3.70;;;20.60;56.50;;;;;;4900202;28;87102;-83
2022/11/06 10:35:34;;;;;;;9.88;3.40;;;20.60;56.60;;;;;;4898340;28;87037;-83
2022/11/06 10:38:03;;;;;;;11.35;4.05;;;20.70;56.50;;;;;;4881933;28;91418;-84
2022/11/06 10:40:33;;;;;;;17.15;3.88;;;20.80;56.20;;;;;;4897725;28;88523;-83
2022/11/06 10:43:27;;;;;;;9.15;2.92;;;20.80;55.90;;;;;;4898049;28;86920;-83
2022/11/06 10:46:00;;;;;;;13.13;3.58;;;20.80;56.30;;;;;;4886861;28;88743;-84
2022/11/06 10:48:30;;;;;;;10.10;3.92;;;20.80;56.70;;;;;;4878552;28;88967;-83
2022/11/06 10:51:01;;;;;;;16.27;3.55;;;20.80;56.90;;;;;;4863115;28;87464;-83
2022/11/06 10:53:49;;;;;;;9.82;3.42;;;20.70;57.30;;;;;;4875992;28;87219;-84
2022/11/06 10:56:52;;;;;;;11.98;3.88;;;20.70;57.60;;;;;;4861534;28;87475;-83
2022/11/06 10:59:18;;;;;;;10.73;3.17;;;20.70;58.10;;;;;;4902804;28;87202;-84
2022/11/06 11:01:43;;;;;;;11.70;4.15;;;20.70;58.70;;;;;;4937073;28;87745;-83
2022/11/06 11:04:09;;;;;;;8.73;3.33;;;20.70;59.20;;;;;;4946240;28;88339;-83
2022/11/06 11:06:38;;;;;;;9.38;2.97;;;20.80;59.60;;;;;;4978307;28;87133;-83
2022/11/06 11:09:28;;;;;;;10.95;3.55;;;20.80;60.10;;;;;;4977142;28;88254;-82
2022/11/06 11:11:54;;;;;;;12.98;3.53;;;20.80;60.10;;;;;;4978043;28;92519;-82
2022/11/06 11:14:28;;;;;;;10.02;3.55;;;20.80;60.40;;;;;;4977191;28;86928;-82
2022/11/06 11:16:58;;;;;;;12.68;3.72;;;20.80;60.80;;;;;;4976217;28;95983;-83
2022/11/06 11:19:40;;;;;;;7.70;2.88;;;20.80;61.20;;;;;;4976981;28;88160;-82
2022/11/06 11:22:14;;;;;;;12.20;3.95;;;20.70;61.40;;;;;;4976607;28;89600;-83
2022/11/06 11:25:01;;;;;;;8.40;2.97;;;20.80;61.20;;;;;;4973680;28;86981;-83
2022/11/06 11:27:56;;;;;;;10.88;3.42;;;20.80;61.40;;;;;;4976596;28;87512;-83
2022/11/06 11:30:31;;;;;;;6.57;2.47;;;20.80;61.30;;;;;;4973229;28;89084;-81
2022/11/06 11:32:57;;;;;;;10.32;3.25;;;20.80;60.60;;;;;;4975255;28;90409;-83
2022/11/06 11:35:28;;;;;;;11.90;3.05;;;20.90;60.30;;;;;;4974793;28;86951;-85
2022/11/06 11:38:10;;;;;;;9.32;3.03;;;20.80;60.70;;;;;;4974546;28;89620;-83
2022/11/06 11:40:37;;;;;;;8.15;2.92;;;20.80;60.10;;;;;;4974403;28;88586;-84
2022/11/06 11:43:21;;;;;;;9.07;2.95;;;20.80;60.30;;;;;;4974612;28;88014;-84
2022/11/06 11:46:16;;;;;;;11.02;2.40;;;20.80;60.70;;;;;;4974823;28;87249;-84
2022/11/06 11:48:49;;;;;;;11.23;3.35;;;20.80;60.80;;;;;;4974796;28;86844;-83
2022/11/06 11:51:34;;;;;;;8.50;2.90;;;20.80;60.80;;;;;;4974528;28;88500;-83
2022/11/06 11:54:12;;;;;;;11.13;3.25;;;20.80;61.00;;;;;;4974919;28;88209;-83
2022/11/06 11:56:51;;;;;;;10.80;3.45;;;20.90;61.10;;;;;;4973256;28;87951;-84
2022/11/06 11:59:20;;;;;;;10.48;3.05;;;20.90;61.40;;;;;;4973106;28;90299;-84
2022/11/06 12:01:47;;;;;;;14.18;2.85;;;20.90;61.60;;;;;;4974486;28;88134;-84
2022/11/06 12:04:28;;;;;;;8.18;2.63;;;20.90;61.60;;;;;;4975702;28;88158;-84
2022/11/06 12:06:58;;;;;;;12.65;3.60;;;21.00;61.60;;;;;;4972845;28;87486;-84
2022/11/06 12:09:25;;;;;;;7.63;2.85;;;20.90;60.50;;;;;;4976384;28;88670;-85
2022/11/06 12:11:54;;;;;;;10.35;3.03;;;20.90;60.20;;;;;;4978684;28;87610;-85
2022/11/06 12:14:31;;;;;;;10.20;3.27;;;20.90;60.60;;;;;;4977409;28;87897;-84
2022/11/06 12:17:23;;;;;;;6.50;2.92;;;21.00;61.30;;;;;;4976783;28;86871;-84
2022/11/06 12:19:56;;;;;;;9.43;3.08;;;21.00;61.40;;;;;;4973047;28;87058;-84
2022/11/06 12:22:29;;;;;;;13.90;3.28;;;21.00;61.10;;;;;;4973000;28;88255;-84
2022/11/06 12:25:09;;;;;;;11.23;3.08;;;20.90;61.30;;;;;;4975629;28;89360;-84
2022/11/06 12:27:42;;;;;;;10.45;2.85;;;20.80;61.30;;;;;;4975832;28;86941;-82
2022/11/06 12:30:21;;;;;;;11.77;3.67;;;20.90;61.60;;;;;;4975550;28;87859;-84
2022/11/06 12:32:58;;;;;;;14.93;3.17;;;20.80;61.40;;;;;;4976971;28;94587;-84
2022/11/06 12:35:24;;;;;;;7.80;3.33;;;20.80;61.60;;;;;;4977365;28;88033;-85
2022/11/06 12:37:50;;;;;;;7.57;2.70;;;20.80;61.50;;;;;;4974626;28;87017;-84
2022/11/06 12:40:20;;;;;;;8.38;3.03;;;20.70;61.70;;;;;;4972672;28;86364;-85
2022/11/06 12:42:59;;;;;;;8.82;2.53;;;20.60;62.00;;;;;;4973746;28;91074;-84
2022/11/06 12:45:34;;;;;;;;;;;20.50;62.00;;;;;;4974913;28;88370;-84
2022/11/06 12:48:30;;;;;;;10.48;2.70;;;20.50;62.30;;;;;;4976307;28;87982;-84
2022/11/06 12:51:09;;;;;;;12.27;3.20;;;20.50;62.30;;;;;;4974944;28;91066;-85
2022/11/06 12:53:45;;;;;;;8.30;3.00;;;20.40;62.50;;;;;;4973736;28;87403;-84
2022/11/06 12:56:30;;;;;;;8.70;3.13;;;20.40;62.60;;;;;;4973695;28;88121;-84
2022/11/06 12:59:38;;;;;;;7.35;2.70;;;20.40;62.60;;;;;;4981417;28;86767;-85
2022/11/06 13:02:22;;;;;;;7.97;2.70;;;20.30;62.70;;;;;;4973960;28;87985;-84
2022/11/06 13:05:22;;;;;;;8.65;2.90;;;20.30;62.80;;;;;;4976407;28;90188;-84
2022/11/06 13:08:05;;;;;;;9.50;3.15;;;20.30;63.00;;;;;;4976404;28;87395;-82
2022/11/06 13:10:42;;;;;;;9.32;2.47;;;20.30;62.90;;;;;;4982282;28;87167;-84
2022/11/06 13:13:44;;;;;;;8.05;3.03;;;20.20;62.90;;;;;;4976702;28;88219;-84
2022/11/06 13:16:27;;;;;;;8.57;2.72;;;20.20;63.00;;;;;;4976533;28;88570;-84
2022/11/06 13:19:03;;;;;;;10.30;3.17;;;20.20;62.90;;;;;;4992862;28;89999;-84